Time;durP1;ratioP1;P1;durP2;ratioP2;P2;SDS_P1;SDS_P2;PMS_P1;PMS_P2;Temp;Humidity;BMP_temperature;BMP_pressure;BME280_temperature;BME280_humidity;BME280_pressure;Samples;Min_cycle;Max_cycle;Signal;HPM_P1;HPM_P2
2021/05/27 00:03:55;;;;;;;11.18;2.45;;;10.40;99.90;;;;;;5904910;40;20048;-69
2021/05/27 00:08:00;;;;;;;8.95;2.70;;;10.40;99.90;;;;;;5913668;40;20060;-69
2021/05/27 00:12:06;;;;;;;7.55;2.50;;;10.40;99.90;;;;;;5910724;40;20057;-68
2021/05/27 00:16:10;;;;;;;9.05;2.42;;;10.40;99.90;;;;;;5911574;40;20049;-68
2021/05/27 00:20:16;;;;;;;16.05;2.95;;;10.40;99.90;;;;;;5904857;40;20049;-69
2021/05/27 00:24:21;;;;;;;7.43;2.25;;;10.40;99.90;;;;;;5911589;40;20335;-68
2021/05/27 00:28:25;;;;;;;12.15;2.78;;;10.40;99.90;;;;;;5910997;39;20428;-69
2021/05/27 00:32:30;;;;;;;12.90;3.13;;;10.40;99.90;;;;;;5904223;40;20064;-69
2021/05/27 00:36:37;;;;;;;11.93;3.10;;;10.40;99.90;;;;;;5911983;40;20057;-69
2021/05/27 00:40:44;;;;;;;9.10;2.50;;;10.40;99.90;;;;;;5912886;40;20432;-68
2021/05/27 00:45:09;;;;;;;12.40;3.00;;;10.40;99.90;;;;;;5914581;39;20029;-69
2021/05/27 00:49:17;;;;;;;7.72;2.85;;;10.50;99.90;;;;;;5911198;40;20045;-69
2021/05/27 00:53:22;;;;;;;14.77;3.10;;;10.40;99.90;;;;;;5914017;40;20067;-69
2021/05/27 00:57:37;;;;;;;9.52;2.90;;;10.50;99.90;;;;;;5904123;40;20044;-70
2021/05/27 01:01:44;;;;;;;10.98;3.15;;;10.50;99.90;;;;;;5915460;40;20068;-70
2021/05/27 01:05:57;;;;;;;10.88;2.80;;;10.50;99.90;;;;;;5901473;40;20051;-69
2021/05/27 01:10:05;;;;;;;8.50;2.53;;;10.50;99.90;;;;;;5913047;40;20096;-69
2021/05/27 01:14:14;;;;;;;10.98;3.03;;;10.50;99.90;;;;;;5912573;40;20067;-69
2021/05/27 01:18:22;;;;;;;7.70;2.60;;;10.50;99.90;;;;;;5911652;40;20088;-70
2021/05/27 01:22:27;;;;;;;5.18;2.38;;;10.50;99.90;;;;;;5905250;40;20310;-69
2021/05/27 01:26:35;;;;;;;12.00;2.67;;;10.50;99.90;;;;;;5913168;40;20059;-70
2021/05/27 01:30:42;;;;;;;6.95;2.10;;;10.50;99.90;;;;;;5909257;40;20045;-69
2021/05/27 01:35:06;;;;;;;;;;;11.10;99.90;;;;;;5910525;40;20067;-69
2021/05/27 01:39:12;;;;;;;5.97;2.00;;;10.50;99.90;;;;;;5911710;40;20235;-69
2021/05/27 01:43:21;;;;;;;5.55;2.50;;;10.40;99.90;;;;;;5903356;40;20043;-70
2021/05/27 01:47:28;;;;;;;8.15;2.10;;;10.40;99.90;;;;;;5911870;40;20154;-69
2021/05/27 01:51:35;;;;;;;2.75;1.30;;;10.50;99.90;;;;;;5911856;40;20057;-69
2021/05/27 01:55:46;;;;;;;6.63;1.75;;;10.30;99.90;;;;;;5910603;40;20053;-69
2021/05/27 01:59:57;;;;;;;5.10;1.73;;;10.20;99.90;;;;;;5912721;40;20397;-69
2021/05/27 02:04:06;;;;;;;10.65;2.25;;;10.10;99.90;;;;;;5905020;40;20391;-69
2021/05/27 02:08:18;;;;;;;6.68;2.10;;;10.10;99.90;;;;;;5910682;40;20048;-68
2021/05/27 02:12:25;;;;;;;5.40;1.80;;;9.60;99.90;;;;;;5912850;40;20362;-67
2021/05/27 02:16:31;;;;;;;11.23;2.08;;;10.20;99.90;;;;;;5903680;40;20045;-68
2021/05/27 02:20:37;;;;;;;7.57;2.20;;;10.10;99.90;;;;;;5913104;40;20082;-67
2021/05/27 02:24:41;;;;;;;5.50;1.63;;;10.20;99.90;;;;;;5901034;40;20462;-68
2021/05/27 02:28:49;;;;;;;4.28;1.50;;;10.10;99.90;;;;;;5914314;40;20049;-69
2021/05/27 02:32:54;;;;;;;4.57;1.88;;;10.20;99.90;;;;;;5895339;40;20059;-69
2021/05/27 02:37:03;;;;;;;3.78;1.40;;;10.10;99.90;;;;;;5912162;40;20969;-70
2021/05/27 02:41:16;;;;;;;6.53;1.65;;;10.10;99.90;;;;;;5914230;40;20420;-69
2021/05/27 02:45:22;;;;;;;5.35;1.40;;;10.00;99.90;;;;;;5906689;40;20029;-69
2021/05/27 02:49:28;;;;;;;5.22;1.63;;;10.00;99.90;;;;;;5894643;40;20045;-69
2021/05/27 02:53:35;;;;;;;4.82;1.50;;;10.00;99.90;;;;;;5913340;40;20379;-69
2021/05/27 02:57:43;;;;;;;4.50;1.30;;;10.00;99.90;;;;;;5913162;40;20048;-69
2021/05/27 03:01:48;;;;;;;6.53;1.58;;;10.10;99.90;;;;;;5905074;40;20076;-70
2021/05/27 03:06:00;;;;;;;3.78;1.30;;;10.00;99.90;;;;;;5915638;40;20127;-69
2021/05/27 03:10:09;;;;;;;4.32;1.50;;;10.00;99.90;;;;;;5913228;39;20693;-69
2021/05/27 03:14:14;;;;;;;3.28;1.50;;;10.00;99.90;;;;;;5902903;40;20111;-70
2021/05/27 03:18:30;;;;;;;3.38;1.60;;;10.00;99.90;;;;;;5913718;40;20053;-70
2021/05/27 03:22:35;;;;;;;4.40;1.63;;;10.00;99.90;;;;;;5913430;40;20041;-69
2021/05/27 03:26:39;;;;;;;4.78;1.73;;;10.00;99.90;;;;;;5905023;40;20064;-68
2021/05/27 03:30:46;;;;;;;5.43;2.05;;;10.00;99.90;;;;;;5903644;40;20509;-69
2021/05/27 03:34:51;;;;;;;6.93;2.20;;;9.90;99.90;;;;;;5914372;40;20029;-69
2021/05/27 03:38:56;;;;;;;6.30;2.72;;;9.90;99.90;;;;;;5911242;40;20392;-69
2021/05/27 03:43:00;;;;;;;8.38;2.25;;;9.90;99.90;;;;;;5913341;40;20152;-68
2021/05/27 03:47:11;;;;;;;9.00;2.55;;;9.90;99.90;;;;;;5903690;39;20075;-68
2021/05/27 03:51:16;;;;;;;7.28;3.20;;;9.90;99.90;;;;;;5912175;40;20064;-70
2021/05/27 03:55:22;;;;;;;9.70;3.13;;;9.90;99.90;;;;;;5912180;40;20049;-70
2021/05/27 04:08:21;;;;;;;11.68;4.53;;;10.00;99.90;;;;;;5918614;40;20386;-69
2021/05/27 04:16:50;;;;;;;12.80;4.60;;;10.00;99.90;;;;;;5911159;40;20078;-69
2021/05/27 04:20:55;;;;;;;12.77;5.20;;;10.00;99.90;;;;;;5913314;40;20053;-69
2021/05/27 04:25:05;;;;;;;8.75;5.35;;;10.00;99.90;;;;;;5896503;40;20119;-69
2021/05/27 04:29:11;;;;;;;11.27;4.80;;;10.00;99.90;;;;;;5915553;40;20076;-69
2021/05/27 04:33:16;;;;;;;10.80;5.78;;;10.00;99.90;;;;;;5911710;40;20248;-69
2021/05/27 04:37:20;;;;;;;12.43;5.80;;;10.00;99.90;;;;;;5903483;40;20580;-69
2021/05/27 04:41:25;;;;;;;12.50;6.18;;;10.00;99.90;;;;;;5915645;40;20121;-69
2021/05/27 04:45:30;;;;;;;15.18;6.82;;;9.30;99.90;;;;;;5915142;40;20096;-70
2021/05/27 04:49:35;;;;;;;14.35;6.18;;;10.00;99.90;;;;;;5902373;40;20346;-69
2021/05/27 04:53:45;;;;;;;13.88;5.78;;;10.00;99.90;;;;;;5902821;40;20056;-68
2021/05/27 04:57:50;;;;;;;10.80;5.10;;;10.00;99.90;;;;;;5903121;40;20051;-69
2021/05/27 05:01:54;;;;;;;14.80;5.88;;;10.00;99.90;;;;;;5914219;40;20113;-69
2021/05/27 05:06:02;;;;;;;10.38;4.07;;;10.10;99.90;;;;;;5915709;40;20060;-72
2021/05/27 05:10:09;;;;;;;7.65;4.32;;;10.10;99.90;;;;;;5912798;40;20053;-72
2021/05/27 05:14:13;;;;;;;8.07;3.78;;;10.10;99.90;;;;;;5912868;40;20089;-72
2021/05/27 05:18:18;;;;;;;7.63;3.38;;;10.20;99.90;;;;;;5905339;40;20045;-72
2021/05/27 05:22:22;;;;;;;7.82;2.40;;;10.20;99.90;;;;;;5914314;40;20421;-72
2021/05/27 05:26:30;;;;;;;7.03;2.50;;;10.30;99.90;;;;;;5916130;40;20413;-72
2021/05/27 05:30:35;;;;;;;8.68;2.60;;;10.30;99.90;;;;;;5903354;40;20220;-72
2021/05/27 05:34:40;;;;;;;7.45;2.38;;;10.30;99.90;;;;;;5910297;40;20060;-72
2021/05/27 05:38:44;;;;;;;5.93;2.38;;;10.30;99.90;;;;;;5910090;40;20103;-72
2021/05/27 05:42:50;;;;;;;7.28;2.10;;;10.40;99.90;;;;;;5911029;40;20092;-73
2021/05/27 05:46:54;;;;;;;4.80;1.67;;;10.40;99.90;;;;;;5907192;40;20048;-72
2021/05/27 05:51:00;;;;;;;6.72;1.60;;;10.40;99.90;;;;;;5907597;40;20567;-72
2021/05/27 05:55:05;;;;;;;7.35;1.75;;;9.80;99.90;;;;;;5906235;40;20087;-72
2021/05/27 05:59:10;;;;;;;6.00;1.50;;;10.40;99.90;;;;;;5917297;40;20578;-73
2021/05/27 06:03:25;;;;;;;5.72;1.90;;;10.40;99.90;;;;;;5908425;40;20310;-72
2021/05/27 06:07:56;;;;;;;5.85;1.77;;;10.50;99.90;;;;;;5913664;40;20106;-73
2021/05/27 06:12:01;;;;;;;10.60;2.15;;;10.50;99.90;;;;;;5911050;40;20093;-72
2021/05/27 06:16:06;;;;;;;6.22;1.80;;;11.00;99.90;;;;;;5910269;40;20095;-72
2021/05/27 06:20:08;;;;;;;4.53;1.48;;;11.10;99.90;;;;;;5911935;40;20053;-73
2021/05/27 06:24:13;;;;;;;5.57;1.60;;;10.80;99.90;;;;;;5906640;40;20441;-73
2021/05/27 06:28:21;;;;;;;8.88;1.77;;;10.80;99.90;;;;;;5901124;40;20081;-73
2021/05/27 06:32:25;;;;;;;10.77;1.70;;;10.80;99.90;;;;;;5913787;40;20259;-73
2021/05/27 06:36:32;;;;;;;8.15;1.40;;;10.90;99.90;;;;;;5903886;40;20047;-73
2021/05/27 06:40:39;;;;;;;9.60;2.00;;;10.90;99.90;;;;;;5902560;40;20045;-72
2021/05/27 06:44:47;;;;;;;7.15;1.83;;;10.90;99.90;;;;;;5907751;40;20055;-72
2021/05/27 06:48:54;;;;;;;9.93;1.98;;;10.90;99.90;;;;;;5913829;40;20063;-73
2021/05/27 06:53:04;;;;;;;7.30;1.73;;;11.10;99.90;;;;;;5913130;40;20414;-73
2021/05/27 06:57:09;;;;;;;7.53;1.88;;;10.60;99.90;;;;;;5905061;40;20049;-72
2021/05/27 07:01:16;;;;;;;6.25;2.25;;;11.20;99.90;;;;;;5912561;40;20355;-73
2021/05/27 07:05:21;;;;;;;6.03;1.98;;;11.30;99.90;;;;;;5911223;40;20413;-73
2021/05/27 07:09:27;;;;;;;7.53;2.05;;;11.30;99.90;;;;;;5911919;40;20356;-73
2021/05/27 07:13:32;;;;;;;4.68;1.70;;;11.40;99.90;;;;;;5909906;40;20089;-72
2021/05/27 07:17:40;;;;;;;6.00;1.70;;;11.40;99.90;;;;;;5909162;40;20060;-73
2021/05/27 07:21:45;;;;;;;5.70;1.50;;;11.40;99.90;;;;;;5911487;40;20065;-73
2021/05/27 07:25:49;;;;;;;6.13;1.10;;;11.50;99.90;;;;;;5897721;40;20057;-73
2021/05/27 07:29:57;;;;;;;4.88;1.13;;;11.00;99.90;;;;;;5910788;40;20265;-73
2021/05/27 07:34:03;;;;;;;6.90;1.70;;;11.60;99.90;;;;;;5909265;40;20131;-73
2021/05/27 07:38:08;;;;;;;2.85;1.30;;;11.70;99.90;;;;;;5913621;39;20373;-72
2021/05/27 07:42:13;;;;;;;5.85;1.50;;;11.20;99.90;;;;;;5913030;40;20061;-73
2021/05/27 07:46:18;;;;;;;8.07;1.20;;;11.90;99.90;;;;;;5911711;40;20211;-73
2021/05/27 07:50:24;;;;;;;5.68;1.33;;;12.00;99.90;;;;;;5911450;40;20131;-73
2021/05/27 07:54:32;;;;;;;5.88;1.42;;;12.10;99.90;;;;;;5899476;40;20196;-74
2021/05/27 07:58:37;;;;;;;4.53;1.40;;;12.20;99.90;;;;;;5900539;40;20107;-74
2021/05/27 08:02:45;;;;;;;2.95;1.25;;;12.90;99.90;;;;;;5901985;40;20068;-73
2021/05/27 08:06:55;;;;;;;6.15;1.17;;;12.30;99.90;;;;;;5909466;40;20112;-73
2021/05/27 08:11:00;;;;;;;4.50;1.10;;;12.50;99.90;;;;;;5910993;40;20064;-73
2021/05/27 08:15:09;;;;;;;4.03;1.00;;;12.60;99.90;;;;;;5913677;40;20086;-73
2021/05/27 08:19:19;;;;;;;3.38;1.00;;;12.80;99.90;;;;;;5909096;40;20542;-68
2021/05/27 08:23:26;;;;;;;5.75;1.20;;;12.90;99.90;;;;;;5912855;40;20081;-68
2021/05/27 08:27:30;;;;;;;5.13;1.08;;;13.20;99.90;;;;;;5905705;40;20138;-69
2021/05/27 08:31:40;;;;;;;10.20;1.05;;;13.50;99.30;;;;;;5907433;40;20057;-69
2021/05/27 08:35:44;;;;;;;5.55;1.15;;;13.60;98.90;;;;;;5902073;40;27185;-69
2021/05/27 08:39:49;;;;;;;4.95;0.93;;;13.60;99.10;;;;;;5909736;40;20092;-69
2021/05/27 08:43:56;;;;;;;5.78;0.98;;;13.60;99.60;;;;;;5910880;40;20308;-68
2021/05/27 08:48:04;;;;;;;4.25;1.08;;;13.60;99.00;;;;;;5908188;40;20053;-68
2021/05/27 08:52:08;;;;;;;5.22;1.70;;;13.60;98.70;;;;;;5911893;40;20076;-68
2021/05/27 08:56:13;;;;;;;5.90;1.60;;;13.80;99.90;;;;;;5909219;40;20061;-68
2021/05/27 09:00:19;;;;;;;6.25;1.83;;;14.10;99.90;;;;;;5897129;40;20255;-69
2021/05/27 09:04:24;;;;;;;5.18;1.42;;;14.30;99.80;;;;;;5899195;40;20037;-69
2021/05/27 09:08:34;;;;;;;6.70;1.60;;;14.20;99.30;;;;;;5907766;40;20463;-68
2021/05/27 09:12:38;;;;;;;7.20;1.70;;;14.20;99.80;;;;;;5903544;40;20059;-69
2021/05/27 09:16:57;;;;;;;5.05;1.42;;;14.00;99.90;;;;;;5908554;40;20041;-69
2021/05/27 09:21:13;;;;;;;4.35;1.35;;;14.00;99.90;;;;;;5905478;40;20412;-69
2021/05/27 09:25:26;;;;;;;2.83;0.90;;;13.90;99.90;;;;;;5907805;40;20105;-69
2021/05/27 09:29:45;;;;;;;6.22;0.88;;;13.80;99.20;;;;;;5898434;40;20045;-70
2021/05/27 09:34:10;;;;;;;7.03;1.65;;;13.70;98.90;;;;;;5905235;40;20081;-69
2021/05/27 09:38:27;;;;;;;3.70;0.93;;;13.90;97.10;;;;;;5897735;40;20071;-69
2021/05/27 09:42:50;;;;;;;3.10;0.82;;;13.70;98.30;;;;;;5901224;40;20649;-69
2021/05/27 09:46:53;;;;;;;4.28;0.70;;;13.70;98.20;;;;;;5909404;40;20128;-69
2021/05/27 09:51:00;;;;;;;4.43;1.02;;;13.80;98.40;;;;;;5909010;40;20077;-69
2021/05/27 09:55:13;;;;;;;4.45;1.00;;;13.80;97.90;;;;;;5911517;40;20145;-69
2021/05/27 09:59:20;;;;;;;4.60;1.27;;;13.80;98.10;;;;;;5900530;40;20067;-69
2021/05/27 10:03:31;;;;;;;4.35;1.20;;;13.80;98.20;;;;;;5911044;40;20049;-69
2021/05/27 10:07:44;;;;;;;5.72;1.10;;;13.80;98.20;;;;;;5899957;40;20123;-68
2021/05/27 10:12:11;;;;;;;5.38;1.10;;;13.80;98.20;;;;;;5909315;40;20129;-70
2021/05/27 10:16:23;;;;;;;4.63;0.93;;;13.80;98.20;;;;;;5901473;40;20040;-69
2021/05/27 10:20:32;;;;;;;3.38;0.90;;;13.80;98.50;;;;;;5907749;40;20136;-69
2021/05/27 10:24:39;;;;;;;2.67;1.00;;;13.80;98.00;;;;;;5909907;40;20523;-69
2021/05/27 10:28:54;;;;;;;1.60;0.68;;;13.80;98.30;;;;;;5905753;40;20143;-70
2021/05/27 10:33:02;;;;;;;2.90;0.75;;;13.70;98.30;;;;;;5910165;40;20108;-70
2021/05/27 10:37:09;;;;;;;2.17;0.73;;;13.80;98.00;;;;;;5908724;40;20393;-69
2021/05/27 10:41:29;;;;;;;1.75;0.60;;;13.80;97.90;;;;;;5912762;40;20097;-69
2021/05/27 10:45:54;;;;;;;3.40;0.73;;;13.90;96.70;;;;;;5911328;40;20327;-71
2021/05/27 10:49:59;;;;;;;5.75;0.90;;;14.00;97.60;;;;;;5907166;40;20053;-71
2021/05/27 10:54:08;;;;;;;2.97;0.90;;;15.10;97.80;;;;;;5910067;40;20373;-71
2021/05/27 10:58:15;;;;;;;3.03;0.90;;;14.30;97.50;;;;;;5904144;40;20053;-71
2021/05/27 11:02:25;;;;;;;2.65;1.00;;;14.40;97.00;;;;;;5911597;40;20041;-70
2021/05/27 11:06:43;;;;;;;3.78;0.90;;;14.50;97.00;;;;;;5907992;40;20134;-71
2021/05/27 11:10:49;;;;;;;2.05;0.75;;;14.40;96.70;;;;;;5896895;40;20159;-70
2021/05/27 11:14:54;;;;;;;2.40;0.73;;;14.50;96.70;;;;;;5909962;40;20069;-70
2021/05/27 11:18:58;;;;;;;1.95;0.70;;;14.40;97.10;;;;;;5902655;40;20075;-70
2021/05/27 11:23:18;;;;;;;1.88;0.70;;;14.40;97.60;;;;;;5909590;40;20712;-70
2021/05/27 11:27:28;;;;;;;1.60;0.50;;;14.60;97.30;;;;;;5908498;40;20061;-70
2021/05/27 11:31:46;;;;;;;1.45;0.50;;;14.80;95.90;;;;;;5893618;40;20049;-70
2021/05/27 11:35:53;;;;;;;3.25;0.80;;;14.80;95.30;;;;;;5909329;40;20316;-70
2021/05/27 11:40:02;;;;;;;3.60;0.70;;;14.90;96.20;;;;;;5907120;40;20577;-70
2021/05/27 11:44:09;;;;;;;4.05;0.80;;;15.30;96.00;;;;;;5910578;40;20039;-70
2021/05/27 11:48:22;;;;;;;2.40;0.40;;;15.00;95.60;;;;;;5905843;40;21017;-70
2021/05/27 11:52:29;;;;;;;1.00;0.47;;;14.40;95.30;;;;;;5910805;40;20189;-70
2021/05/27 11:56:46;;;;;;;0.85;0.30;;;14.80;95.80;;;;;;5902984;40;20130;-70
2021/05/27 12:00:55;;;;;;;2.00;0.40;;;15.20;95.40;;;;;;5910303;40;20063;-70
2021/05/27 12:05:00;;;;;;;4.80;0.40;;;15.40;95.60;;;;;;5908826;40;20094;-71
2021/05/27 12:09:10;;;;;;;1.65;0.40;;;15.30;95.60;;;;;;5908980;40;20084;-71
2021/05/27 12:13:23;;;;;;;1.75;0.38;;;15.00;95.10;;;;;;5901460;40;20179;-70
2021/05/27 12:17:37;;;;;;;1.48;0.35;;;15.00;93.70;;;;;;5908799;40;20094;-70
2021/05/27 12:21:56;;;;;;;2.00;0.38;;;15.00;95.00;;;;;;5908114;40;20055;-71
2021/05/27 12:26:01;;;;;;;1.38;0.57;;;15.10;94.80;;;;;;5899628;40;20204;-70
2021/05/27 12:30:09;;;;;;;1.58;0.50;;;14.80;95.10;;;;;;5906127;40;20053;-70
2021/05/27 12:34:19;;;;;;;1.95;0.50;;;14.60;95.20;;;;;;5903121;40;20469;-70
2021/05/27 12:38:31;;;;;;;3.25;0.70;;;14.70;95.10;;;;;;5911006;40;20413;-69
2021/05/27 12:42:37;;;;;;;2.10;0.80;;;14.60;94.60;;;;;;5900735;40;20138;-69
2021/05/27 12:46:46;;;;;;;2.55;0.82;;;14.50;95.00;;;;;;5893637;40;20146;-69
2021/05/27 12:51:01;;;;;;;1.83;0.70;;;14.50;94.90;;;;;;5906471;40;20417;-69
2021/05/27 12:55:10;;;;;;;1.35;0.60;;;14.40;95.10;;;;;;5911246;40;20084;-69
2021/05/27 12:59:17;;;;;;;2.67;0.82;;;14.30;95.20;;;;;;5911000;40;20135;-69
2021/05/27 13:03:22;;;;;;;2.75;0.95;;;14.20;95.80;;;;;;5892669;40;20138;-70
2021/05/27 13:07:26;;;;;;;2.25;0.80;;;14.30;96.20;;;;;;5909893;40;20072;-69
2021/05/27 13:11:42;;;;;;;4.43;0.70;;;14.40;96.10;;;;;;5907534;40;20551;-70
2021/05/27 13:16:10;;;;;;;4.00;0.82;;;14.50;96.00;;;;;;5912964;40;20089;-70
2021/05/27 13:20:15;;;;;;;2.05;0.75;;;14.60;95.50;;;;;;5894177;40;20854;-69
2021/05/27 13:24:29;;;;;;;3.05;0.50;;;14.50;95.70;;;;;;5908095;40;20413;-69
2021/05/27 13:28:34;;;;;;;2.70;0.50;;;14.50;95.50;;;;;;5912632;40;20127;-69
2021/05/27 13:32:41;;;;;;;1.73;0.50;;;14.70;95.90;;;;;;5900240;40;20057;-68
2021/05/27 13:36:50;;;;;;;1.17;0.40;;;14.60;95.40;;;;;;5892306;40;20255;-69
2021/05/27 13:40:55;;;;;;;1.02;0.40;;;15.10;95.30;;;;;;5907071;40;20064;-69
2021/05/27 13:45:02;;;;;;;1.65;0.40;;;14.90;95.20;;;;;;5897794;40;20053;-69
2021/05/27 13:49:07;;;;;;;1.88;0.40;;;14.90;94.70;;;;;;5909942;40;20299;-69
2021/05/27 13:53:12;;;;;;;2.95;0.55;;;14.80;94.90;;;;;;5906027;40;21455;-68
2021/05/27 13:57:19;;;;;;;1.45;0.55;;;14.60;95.10;;;;;;5894731;40;23057;-69
2021/05/27 14:01:27;;;;;;;3.20;0.50;;;14.70;95.40;;;;;;5888628;40;20052;-69
2021/05/27 14:05:38;;;;;;;7.47;0.50;;;14.70;95.50;;;;;;5889966;40;20041;-69
2021/05/27 14:09:43;;;;;;;2.65;0.60;;;14.60;95.40;;;;;;5905305;39;20138;-69
2021/05/27 14:13:49;;;;;;;1.38;0.40;;;14.70;95.00;;;;;;5915093;40;20077;-69
2021/05/27 14:17:53;;;;;;;1.15;0.47;;;14.70;94.60;;;;;;5904412;40;20052;-69
2021/05/27 14:22:00;;;;;;;0.50;0.30;;;14.70;94.80;;;;;;5913592;40;20444;-69
2021/05/27 14:26:05;;;;;;;4.82;0.47;;;14.70;94.70;;;;;;5915877;40;20308;-69
2021/05/27 14:30:11;;;;;;;3.17;0.50;;;14.60;94.50;;;;;;5913559;40;20065;-69
2021/05/27 14:34:16;;;;;;;2.20;0.45;;;14.40;94.60;;;;;;5905831;40;20108;-68
2021/05/27 14:38:22;;;;;;;1.92;0.35;;;14.30;94.40;;;;;;5915009;40;23446;-69
2021/05/27 14:42:26;;;;;;;2.45;0.50;;;14.00;94.40;;;;;;5913463;40;20049;-69
2021/05/27 14:46:31;;;;;;;1.77;0.50;;;14.00;94.60;;;;;;5914541;40;20047;-69
2021/05/27 14:50:36;;;;;;;0.93;0.35;;;13.90;95.00;;;;;;5904295;40;20049;-69
2021/05/27 14:54:43;;;;;;;1.52;0.38;;;13.70;95.10;;;;;;5913926;40;20037;-68
2021/05/27 14:58:45;;;;;;;0.75;0.30;;;13.70;95.30;;;;;;5899219;40;20392;-69
2021/05/27 15:02:52;;;;;;;0.88;0.40;;;13.70;95.60;;;;;;5911623;40;20052;-67
2021/05/27 15:07:00;;;;;;;3.13;0.30;;;13.80;95.70;;;;;;5914552;40;20523;-68
2021/05/27 15:11:05;;;;;;;0.90;0.40;;;13.80;95.70;;;;;;5906767;40;20146;-69
2021/05/27 15:15:13;;;;;;;4.18;0.40;;;13.70;95.50;;;;;;5901203;40;20484;-69
2021/05/27 15:19:18;;;;;;;3.28;0.47;;;13.70;95.60;;;;;;5911441;40;20444;-69
2021/05/27 15:23:20;;;;;;;;;;;13.70;96.00;;;;;;5904872;40;20700;-69
2021/05/27 15:27:25;;;;;;;5.45;0.65;;;13.70;94.40;;;;;;5911502;40;20241;-69
2021/05/27 15:31:29;;;;;;;1.30;0.50;;;13.70;95.80;;;;;;5905713;40;20417;-69
2021/05/27 15:35:36;;;;;;;1.67;0.52;;;13.70;95.90;;;;;;5895503;40;20059;-69
2021/05/27 15:39:44;;;;;;;2.17;0.60;;;13.60;96.10;;;;;;5910522;40;20060;-69
2021/05/27 15:43:49;;;;;;;3.03;0.93;;;13.60;96.50;;;;;;5911228;40;20388;-70
2021/05/27 15:47:56;;;;;;;2.63;1.15;;;13.50;96.70;;;;;;5903868;40;20634;-69
2021/05/27 15:52:03;;;;;;;1.63;0.50;;;13.70;96.70;;;;;;5894462;40;20045;-69
2021/05/27 15:56:07;;;;;;;1.90;0.57;;;13.70;96.70;;;;;;5903572;40;20355;-69
2021/05/27 16:00:12;;;;;;;2.88;0.68;;;13.80;96.60;;;;;;5910205;40;20072;-69
2021/05/27 16:04:18;;;;;;;2.67;0.57;;;13.80;96.70;;;;;;5911771;40;20429;-70
2021/05/27 16:08:23;;;;;;;0.90;0.40;;;13.90;96.50;;;;;;5902433;40;20061;-70
2021/05/27 16:12:28;;;;;;;1.88;0.50;;;14.00;95.90;;;;;;5908898;40;20052;-70
2021/05/27 16:16:34;;;;;;;1.05;0.40;;;14.10;95.50;;;;;;5910841;40;20045;-69
2021/05/27 16:20:43;;;;;;;1.48;0.52;;;14.00;95.20;;;;;;5911545;40;20490;-69
2021/05/27 16:24:48;;;;;;;1.23;0.40;;;14.10;95.30;;;;;;5909300;40;20420;-70
2021/05/27 16:28:53;;;;;;;2.08;0.63;;;14.10;94.90;;;;;;5910860;40;20061;-69
2021/05/27 16:33:03;;;;;;;0.68;0.30;;;14.10;95.00;;;;;;5907736;40;20057;-70
2021/05/27 16:41:33;;;;;;;1.10;0.40;;;13.90;94.40;;;;;;5900485;40;20485;-69
2021/05/27 16:45:38;;;;;;;1.92;0.50;;;14.10;94.10;;;;;;5899718;39;20057;-69
2021/05/27 16:49:43;;;;;;;1.33;0.47;;;14.10;94.30;;;;;;5904351;39;20064;-70
2021/05/27 16:53:50;;;;;;;2.83;0.55;;;14.00;94.10;;;;;;5900343;40;20527;-69
2021/05/27 16:57:57;;;;;;;1.77;0.50;;;14.00;94.30;;;;;;5910369;40;20433;-69
2021/05/27 17:02:02;;;;;;;1.65;0.45;;;14.10;94.50;;;;;;5901442;40;20066;-70
2021/05/27 17:06:09;;;;;;;1.40;0.65;;;14.00;94.40;;;;;;5907102;40;20045;-69
2021/05/27 17:10:18;;;;;;;2.25;0.63;;;13.90;94.50;;;;;;5900855;40;20391;-69
2021/05/27 17:14:26;;;;;;;2.75;0.60;;;13.90;94.90;;;;;;5907470;40;20105;-69
2021/05/27 17:18:27;;;;;;;1.77;0.50;;;13.90;95.00;;;;;;5900539;40;20057;-69
2021/05/27 17:22:35;;;;;;;1.85;0.40;;;13.80;95.10;;;;;;5907952;40;20064;-69
2021/05/27 17:26:40;;;;;;;3.03;0.70;;;13.70;95.20;;;;;;5899034;40;20053;-69
2021/05/27 17:30:47;;;;;;;2.22;0.30;;;13.60;96.20;;;;;;5905627;40;20419;-69
2021/05/27 17:34:52;;;;;;;2.88;1.00;;;13.60;96.20;;;;;;5909720;40;20084;-69
2021/05/27 17:38:58;;;;;;;1.63;0.50;;;13.60;96.40;;;;;;5900592;40;20057;-68
2021/05/27 17:43:03;;;;;;;1.80;0.35;;;13.60;96.50;;;;;;5910556;40;20112;-69
2021/05/27 17:47:05;;;;;;;1.50;0.65;;;13.70;96.60;;;;;;5919304;40;20049;-69
2021/05/27 17:51:10;;;;;;;2.13;0.50;;;13.70;96.70;;;;;;5905787;40;20060;-69
2021/05/27 17:55:16;;;;;;;5.85;0.70;;;13.70;96.90;;;;;;5914852;40;20053;-69
2021/05/27 17:59:21;;;;;;;2.13;0.80;;;13.80;96.90;;;;;;5912937;40;20093;-69
2021/05/27 18:03:26;;;;;;;2.15;0.70;;;13.80;96.70;;;;;;5907762;40;20362;-70
2021/05/27 18:07:31;;;;;;;1.40;0.70;;;13.80;96.80;;;;;;5915671;40;20105;-69
2021/05/27 18:11:36;;;;;;;3.20;0.70;;;13.90;96.70;;;;;;5913884;40;20442;-69
2021/05/27 18:15:41;;;;;;;1.85;0.80;;;13.90;96.50;;;;;;5912407;40;20473;-70
2021/05/27 18:19:48;;;;;;;2.38;0.73;;;13.90;96.60;;;;;;5905122;40;20415;-69
2021/05/27 18:23:53;;;;;;;2.38;0.90;;;14.00;96.50;;;;;;5915410;40;20060;-70
2021/05/27 18:27:59;;;;;;;2.40;0.63;;;14.00;96.20;;;;;;5912326;40;20089;-69
2021/05/27 18:32:04;;;;;;;2.13;0.68;;;13.90;96.20;;;;;;5914401;40;20073;-69
2021/05/27 18:36:11;;;;;;;4.07;0.90;;;13.90;96.20;;;;;;5913502;40;20057;-69
2021/05/27 18:40:16;;;;;;;1.42;0.80;;;13.90;96.40;;;;;;5913470;40;20093;-69
2021/05/27 18:44:21;;;;;;;4.30;0.95;;;13.90;96.30;;;;;;5916403;40;20322;-69
2021/05/27 18:48:31;;;;;;;2.30;0.73;;;13.90;96.50;;;;;;5913247;40;20138;-68
2021/05/27 18:52:36;;;;;;;2.05;0.60;;;13.90;96.30;;;;;;5911146;40;20060;-68
2021/05/27 18:56:48;;;;;;;1.52;0.68;;;13.90;96.40;;;;;;5904543;40;20138;-69
2021/05/27 19:00:53;;;;;;;3.58;0.80;;;13.90;96.20;;;;;;5904991;40;20407;-68
2021/05/27 19:04:58;;;;;;;4.68;0.90;;;13.80;96.40;;;;;;5907289;40;20051;-68
2021/05/27 19:09:07;;;;;;;1.80;0.70;;;13.90;96.50;;;;;;5912935;40;20052;-68
2021/05/27 19:13:15;;;;;;;1.92;0.90;;;13.80;96.50;;;;;;5916070;40;20674;-69
2021/05/27 19:17:19;;;;;;;3.00;1.20;;;13.80;96.60;;;;;;5916362;40;20049;-69
2021/05/27 19:21:24;;;;;;;4.95;1.00;;;13.80;96.60;;;;;;5907624;40;20057;-68
2021/05/27 19:25:31;;;;;;;3.88;1.20;;;13.70;96.70;;;;;;5915739;40;20045;-67
2021/05/27 19:29:38;;;;;;;2.58;1.15;;;13.70;96.70;;;;;;5910519;40;20076;-68
2021/05/27 19:33:43;;;;;;;5.43;1.00;;;13.60;96.80;;;;;;5905281;40;20479;-68
2021/05/27 19:37:45;;;;;;;2.55;1.20;;;13.50;96.80;;;;;;5904490;40;20633;-68
2021/05/27 19:41:52;;;;;;;4.55;1.40;;;13.50;97.00;;;;;;5907327;40;20461;-68
2021/05/27 19:45:57;;;;;;;2.47;1.20;;;13.40;97.10;;;;;;5915100;40;20071;-68
2021/05/27 19:50:07;;;;;;;6.97;1.52;;;13.40;97.40;;;;;;5907064;40;20498;-68
2021/05/27 19:54:14;;;;;;;3.72;1.20;;;13.30;97.20;;;;;;5909258;40;20085;-68
2021/05/27 19:58:18;;;;;;;2.13;1.13;;;13.30;97.20;;;;;;5912114;40;20414;-69
2021/05/27 20:02:25;;;;;;;3.42;1.15;;;13.20;97.20;;;;;;5915173;40;20258;-69
2021/05/27 20:06:31;;;;;;;2.28;1.10;;;13.20;97.30;;;;;;5903349;40;20127;-69
2021/05/27 20:10:36;;;;;;;2.17;0.98;;;13.10;97.30;;;;;;5914506;40;20052;-68
2021/05/27 20:14:41;;;;;;;2.75;1.30;;;13.10;97.40;;;;;;5908829;40;20053;-68
2021/05/27 20:18:46;;;;;;;3.05;1.10;;;13.00;97.40;;;;;;5913177;40;20063;-69
2021/05/27 20:22:53;;;;;;;2.97;1.00;;;12.90;97.50;;;;;;5907022;40;20173;-68
2021/05/27 20:27:17;;;;;;;3.83;1.30;;;12.90;97.60;;;;;;5940257;39;24474;-70
2021/05/27 20:31:22;;;;;;;2.25;1.05;;;12.80;97.60;;;;;;5931113;39;20393;-70
2021/05/27 20:35:33;;;;;;;4.43;1.30;;;12.70;97.60;;;;;;5945587;39;20060;-67
2021/05/27 20:39:39;;;;;;;3.75;1.38;;;12.90;97.70;;;;;;5938446;39;20067;-70
2021/05/27 20:43:44;;;;;;;2.97;1.10;;;12.60;97.70;;;;;;5940785;39;20048;-70
2021/05/27 20:47:49;;;;;;;3.67;1.13;;;12.50;97.60;;;;;;5940891;39;20066;-70
2021/05/27 20:51:53;;;;;;;2.85;1.27;;;12.40;97.60;;;;;;5941604;39;20400;-66
2021/05/27 20:55:58;;;;;;;2.65;1.38;;;12.30;97.60;;;;;;5936841;39;20063;-70
2021/05/27 21:00:06;;;;;;;5.57;1.85;;;12.30;97.60;;;;;;5930337;39;20060;-69
2021/05/27 21:04:13;;;;;;;3.30;1.60;;;12.20;97.60;;;;;;5946831;39;20048;-68
2021/05/27 21:08:18;;;;;;;3.45;1.55;;;12.10;97.50;;;;;;5945586;39;20070;-69
2021/05/27 21:12:28;;;;;;;4.30;1.35;;;12.00;97.30;;;;;;5937857;39;20336;-70
2021/05/27 21:16:33;;;;;;;3.42;1.30;;;11.90;97.20;;;;;;5938805;39;20056;-69
2021/05/27 21:20:37;;;;;;;3.63;1.35;;;11.80;97.10;;;;;;5941945;39;20061;-69
2021/05/27 21:24:44;;;;;;;3.28;1.10;;;11.70;97.10;;;;;;5937507;39;20420;-69
2021/05/27 21:28:53;;;;;;;3.88;1.40;;;11.70;96.80;;;;;;5940970;39;20074;-67
2021/05/27 21:32:58;;;;;;;2.47;1.08;;;11.60;96.90;;;;;;5939577;39;20165;-66
2021/05/27 21:37:02;;;;;;;3.85;1.23;;;11.60;96.80;;;;;;5933785;39;20118;-68
2021/05/27 21:41:10;;;;;;;3.08;1.10;;;11.50;96.70;;;;;;5931268;39;20114;-68
2021/05/27 21:45:16;;;;;;;3.90;1.27;;;11.40;96.70;;;;;;5929980;39;20074;-67